Time;durP1;ratioP1;P1;durP2;ratioP2;P2;SDS_P1;SDS_P2;PMS_P1;PMS_P2;Temp;Humidity;BMP_temperature;BMP_pressure;BME280_temperature;BME280_humidity;BME280_pressure;Samples;Min_cycle;Max_cycle;Signal;HPM_P1;HPM_P2
2022/08/09 00:00:23;;;;;;;2.65;2.30;;;;;;;28.70;44.61;100839.62;1705879;82;21050;-84
2022/08/09 00:02:50;;;;;;;3.15;2.60;;;;;;;28.69;44.63;100837.37;1685783;82;21042;-84
2022/08/09 00:05:18;;;;;;;2.90;2.52;;;;;;;28.69;44.61;100835.16;1706341;82;21655;-84
2022/08/09 00:07:44;;;;;;;2.70;2.30;;;;;;;28.68;44.64;100835.78;1705917;82;21121;-84
2022/08/09 00:10:11;;;;;;;2.90;2.37;;;;;;;28.69;44.61;100841.57;1706244;82;21066;-84
2022/08/09 00:12:37;;;;;;;4.05;2.40;;;;;;;28.69;44.63;100836.56;1705693;82;21050;-84
2022/08/09 00:15:05;;;;;;;2.98;2.50;;;;;;;28.69;44.61;100835.97;1705583;82;21061;-84
2022/08/09 00:17:31;;;;;;;3.20;2.55;;;;;;;28.68;44.65;100837.17;1733263;81;21045;-85
2022/08/09 00:19:57;;;;;;;2.92;2.58;;;;;;;28.69;44.63;100840.17;1733763;81;21052;-84
2022/08/09 00:22:24;;;;;;;3.05;2.70;;;;;;;28.70;44.65;100841.02;1737328;81;21464;-84
2022/08/09 00:24:50;;;;;;;2.80;2.50;;;;;;;28.69;44.66;100834.57;1768024;79;21467;-84
2022/08/09 00:27:19;;;;;;;2.95;2.20;;;;;;;28.70;44.66;100836.81;1767511;79;21012;-84
2022/08/09 00:29:51;;;;;;;3.37;2.52;;;;;;;28.70;44.66;100831.22;1768021;79;21021;-84
2022/08/09 00:32:18;;;;;;;3.12;2.70;;;;;;;28.68;44.67;100826.56;1783309;80;21053;-84
2022/08/09 00:34:44;;;;;;;3.85;2.70;;;;;;;28.68;44.68;100827.37;1784261;79;21105;-85
2022/08/09 00:37:11;;;;;;;2.90;2.50;;;;;;;28.68;44.70;100830.18;1763890;80;21007;-84
2022/08/09 00:39:37;;;;;;;3.22;2.52;;;;;;;28.68;44.70;100827.97;1784219;80;21094;-84
2022/08/09 00:42:09;;;;;;;3.05;2.72;;;;;;;28.68;44.71;100825.98;1784077;80;21044;-84
2022/08/09 00:44:36;;;;;;;3.30;2.62;;;;;;;28.68;44.71;100832.98;1783965;80;21034;-84
2022/08/09 00:47:03;;;;;;;3.42;2.60;;;;;;;28.68;44.72;100840.56;1784180;80;21076;-84
2022/08/09 00:49:29;;;;;;;3.12;2.67;;;;;;;28.68;44.73;100834.38;1779274;80;21054;-84
2022/08/09 00:51:56;;;;;;;2.98;2.72;;;;;;;28.68;44.73;100832.16;1769914;80;21062;-84
2022/08/09 00:54:24;;;;;;;4.37;2.60;;;;;;;28.67;44.75;100831.35;1778960;80;21050;-84
2022/08/09 00:56:50;;;;;;;3.08;2.72;;;;;;;28.68;44.76;100838.58;1779076;80;20991;-84
2022/08/09 00:59:17;;;;;;;2.90;2.42;;;;;;;28.67;44.77;100838.94;1778800;80;22058;-84
2022/08/09 01:01:43;;;;;;;3.55;2.80;;;;;;;28.68;44.77;100834.97;1778962;80;21007;-84
2022/08/09 01:04:27;;;;;;;3.02;2.72;;;;;;;28.68;44.75;100830.77;1779193;80;21050;-84
2022/08/09 01:07:17;;;;;;;3.00;2.70;;;;;;;28.68;44.77;100833.56;1778796;79;21019;-84
2022/08/09 01:10:05;;;;;;;2.85;2.50;;;;;;;28.67;44.78;100832.75;1800575;79;21034;-84
2022/08/09 01:12:48;;;;;;;3.25;2.80;;;;;;;28.66;44.79;100831.13;1800047;79;21262;-84
2022/08/09 01:15:18;;;;;;;3.62;3.05;;;;;;;28.66;44.78;100831.13;1799588;79;21042;-84
2022/08/09 01:17:50;;;;;;;3.52;2.47;;;;;;;28.65;44.76;100832.30;1800130;79;21116;-84
2022/08/09 01:20:46;;;;;;;3.20;2.62;;;;;;;28.65;44.79;100825.30;1800268;79;20990;-85
2022/08/09 01:23:52;;;;;;;2.80;2.50;;;;;;;28.65;44.79;100825.89;1799816;79;21013;-84
2022/08/09 01:27:00;;;;;;;4.08;2.50;;;;;;;28.64;44.80;100822.31;1800542;79;21123;-85
2022/08/09 01:29:34;;;;;;;3.00;2.70;;;;;;;28.64;44.79;100822.31;1799890;79;21046;-84
2022/08/09 01:32:02;;;;;;;4.65;2.75;;;;;;;28.63;44.82;100815.67;1798878;78;20989;-85
2022/08/09 01:34:30;;;;;;;3.92;2.70;;;;;;;28.61;44.83;100818.25;1771238;79;20998;-84
2022/08/09 01:36:58;;;;;;;3.15;2.70;;;;;;;28.63;44.86;100828.27;1800299;79;21037;-84
2022/08/09 01:39:25;;;;;;;3.62;2.65;;;;;;;28.63;44.87;100824.88;1800261;79;21126;-85
2022/08/09 01:41:53;;;;;;;2.90;2.60;;;;;;;28.63;44.87;100818.47;1797103;79;21587;-84
2022/08/09 01:44:19;;;;;;;3.50;2.72;;;;;;;28.61;44.88;100822.44;1795480;79;21094;-85
2022/08/09 01:46:46;;;;;;;3.60;2.65;;;;;;;28.62;44.88;100824.66;1779142;80;21063;-85
2022/08/09 01:49:17;;;;;;;4.45;3.15;;;;;;;28.61;44.87;100822.44;1778822;80;21043;-84
2022/08/09 01:52:04;;;;;;;3.67;2.80;;;;;;;28.63;44.89;100819.28;1779021;80;21141;-85
2022/08/09 01:54:34;;;;;;;3.80;2.80;;;;;;;28.62;44.88;100819.05;1778499;79;21113;-84
2022/08/09 01:57:08;;;;;;;3.30;2.85;;;;;;;28.62;44.88;100820.45;1770333;80;21062;-84
2022/08/09 01:59:35;;;;;;;3.33;2.90;;;;;;;28.63;44.87;100831.06;1778784;80;21498;-84
2022/08/09 02:02:02;;;;;;;3.37;2.72;;;;;;;28.63;44.88;100829.08;1779058;80;21052;-84
2022/08/09 02:04:29;;;;;;;3.20;2.60;;;;;;;28.62;44.89;100830.25;1779073;79;21043;-84
2022/08/09 02:07:14;;;;;;;3.30;2.90;;;;;;;28.63;44.89;100823.48;1778825;80;20987;-84
2022/08/09 02:09:46;;;;;;;2.70;2.50;;;;;;;28.63;44.90;100822.67;1778861;80;21067;-84
2022/08/09 02:12:12;;;;;;;2.92;2.62;;;;;;;28.63;44.91;100827.68;1769834;79;21070;-84
2022/08/09 02:14:41;;;;;;;4.47;3.17;;;;;;;28.64;44.89;100829.89;1770189;80;21525;-84
2022/08/09 02:17:08;;;;;;;4.35;2.80;;;;;;;28.63;44.92;100824.88;1779003;79;21133;-84
2022/08/09 02:19:34;;;;;;;3.75;2.75;;;;;;;28.63;44.93;100831.88;1769792;80;21529;-84
2022/08/09 02:22:04;;;;;;;3.40;2.80;;;;;;;28.63;44.94;100838.06;1779148;80;21587;-84
2022/08/09 02:24:37;;;;;;;;;;;;;;;28.62;44.95;100842.85;1782014;79;21521;-84
2022/08/09 02:27:05;;;;;;;3.35;2.80;;;;;;;28.63;44.94;100839.47;1778646;79;20437;-84
2022/08/09 02:29:38;;;;;;;3.30;3.00;;;;;;;28.62;44.95;100828.86;1779368;79;21239;-85
2022/08/09 02:32:07;;;;;;;2.85;2.52;;;;;;;28.61;44.95;100825.83;1778897;80;21531;-84
2022/08/09 02:34:33;;;;;;;3.35;2.95;;;;;;;28.61;44.96;100831.42;1779267;80;21089;-84
2022/08/09 02:37:02;;;;;;;3.65;3.20;;;;;;;28.61;44.96;100828.62;1779199;80;21404;-84
2022/08/09 02:39:32;;;;;;;3.12;2.83;;;;;;;28.62;44.98;100831.66;1778859;80;21086;-84
2022/08/09 02:42:02;;;;;;;4.58;2.92;;;;;;;28.61;44.98;100823.84;1779526;79;21298;-83
2022/08/09 02:44:35;;;;;;;3.70;2.95;;;;;;;28.62;44.99;100823.25;1779200;79;21492;-85
2022/08/09 02:47:07;;;;;;;3.90;3.02;;;;;;;28.61;44.99;100826.64;1778936;79;21509;-84
2022/08/09 02:49:37;;;;;;;3.35;2.83;;;;;;;28.62;44.99;100826.05;1778706;80;21032;-85
2022/08/09 02:52:04;;;;;;;2.75;2.55;;;;;;;28.61;45.00;100830.84;1778464;79;26941;-84
2022/08/09 02:54:30;;;;;;;3.62;3.00;;;;;;;28.61;45.01;100828.05;1778468;79;21220;-84
2022/08/09 02:56:57;;;;;;;4.87;2.83;;;;;;;28.61;45.01;100825.83;1768672;79;21398;-85
2022/08/09 02:59:24;;;;;;;3.60;2.85;;;;;;;28.62;45.02;100828.86;1744053;80;21048;-85
2022/08/09 03:01:50;;;;;;;3.30;3.00;;;;;;;28.61;45.02;100829.44;1744293;81;21048;-85
2022/08/09 03:04:17;;;;;;;3.40;2.90;;;;;;;28.61;45.02;100832.23;1744451;80;21107;-85
2022/08/09 03:06:43;;;;;;;3.42;2.90;;;;;;;28.62;45.04;100831.66;1743974;80;21954;-85
2022/08/09 03:09:16;;;;;;;2.87;2.62;;;;;;;28.63;45.05;100839.47;1723449;81;21036;-85
2022/08/09 03:11:42;;;;;;;3.25;2.95;;;;;;;28.62;45.05;100840.05;1754739;80;21114;-84
2022/08/09 03:14:09;;;;;;;3.33;2.95;;;;;;;28.63;45.04;100845.06;1754391;80;21036;-85
2022/08/09 03:16:36;;;;;;;3.60;3.12;;;;;;;28.61;45.05;100844.84;1754614;80;21582;-85
2022/08/09 03:19:02;;;;;;;3.47;3.00;;;;;;;28.63;45.02;100840.87;1754624;80;21932;-85
2022/08/09 03:21:29;;;;;;;3.10;2.80;;;;;;;28.63;45.04;100845.06;1754202;80;21060;-84
2022/08/09 03:23:55;;;;;;;3.70;2.70;;;;;;;28.62;45.06;100848.45;1722964;81;21083;-85
2022/08/09 03:26:22;;;;;;;2.90;2.55;;;;;;;28.63;45.06;100842.27;1754638;80;21577;-84
2022/08/09 03:28:48;;;;;;;3.25;2.90;;;;;;;28.61;45.05;100843.44;1722999;80;21676;-84
2022/08/09 03:31:15;;;;;;;3.47;3.00;;;;;;;28.62;45.05;100854.05;1754501;80;21087;-84
2022/08/09 03:33:42;;;;;;;2.90;2.60;;;;;;;28.62;45.06;100847.05;1770022;79;21072;-85
2022/08/09 03:36:09;;;;;;;3.25;2.95;;;;;;;28.61;45.07;100854.64;1778490;79;21086;-84
2022/08/09 03:38:39;;;;;;;4.00;2.85;;;;;;;28.62;45.07;100855.45;1773842;79;21558;-84
2022/08/09 03:41:05;;;;;;;4.15;3.12;;;;;;;28.63;45.08;100862.67;1778798;79;21113;-85
2022/08/09 03:43:32;;;;;;;3.15;2.70;;;;;;;28.62;45.07;100858.25;1778430;79;21517;-84
2022/08/09 03:46:00;;;;;;;3.52;3.15;;;;;;;28.61;45.07;100854.64;1778642;79;21010;-84
2022/08/09 03:48:27;;;;;;;4.65;3.00;;;;;;;28.61;45.08;100848.22;1778664;79;21090;-84
2022/08/09 03:50:53;;;;;;;4.10;3.08;;;;;;;28.61;45.07;100852.42;1770456;79;21090;-84
2022/08/09 03:53:20;;;;;;;3.37;3.08;;;;;;;28.62;45.08;100844.25;1770825;79;21075;-85
2022/08/09 03:55:47;;;;;;;3.45;2.90;;;;;;;28.61;45.05;100839.23;1770666;79;21974;-85
2022/08/09 03:58:13;;;;;;;3.62;2.72;;;;;;;28.62;45.07;100840.05;1770231;79;21082;-84
2022/08/09 04:00:40;;;;;;;3.20;2.90;;;;;;;28.61;45.07;100837.84;1770703;79;21051;-84
2022/08/09 04:03:07;;;;;;;3.47;3.15;;;;;;;28.61;45.07;100836.44;1770614;81;21039;-84
2022/08/09 04:05:33;;;;;;;3.25;2.92;;;;;;;28.62;45.08;100835.85;1770645;81;20959;-85
2022/08/09 04:08:00;;;;;;;3.25;2.95;;;;;;;28.60;45.08;100830.61;1751890;80;22247;-84
2022/08/09 04:10:26;;;;;;;3.47;3.05;;;;;;;28.62;45.09;100833.05;1780364;80;21173;-84
2022/08/09 04:12:53;;;;;;;4.00;3.20;;;;;;;28.61;45.07;100835.04;1780142;79;21044;-84
2022/08/09 04:15:23;;;;;;;3.50;3.20;;;;;;;28.62;45.07;100837.25;1780391;80;21090;-84
2022/08/09 04:17:49;;;;;;;3.17;2.87;;;;;;;28.61;45.11;100831.42;1780746;79;21115;-85
2022/08/09 04:20:16;;;;;;;3.58;2.83;;;;;;;28.61;45.08;100837.84;1780195;79;21170;-85
2022/08/09 04:22:43;;;;;;;3.47;3.17;;;;;;;28.61;45.08;100834.23;1780460;79;21641;-85
2022/08/09 04:25:10;;;;;;;4.17;3.20;;;;;;;28.61;45.08;100836.44;1780528;80;21138;-84
2022/08/09 04:27:40;;;;;;;3.20;2.90;;;;;;;28.61;45.09;100835.04;1780139;80;21011;-84
2022/08/09 04:30:14;;;;;;;5.12;2.98;;;;;;;28.61;45.08;100833.64;1780542;79;21008;-85
2022/08/09 04:32:41;;;;;;;3.92;2.95;;;;;;;28.62;45.06;100840.05;1780126;80;21858;-85
2022/08/09 04:35:09;;;;;;;3.55;3.08;;;;;;;28.63;45.10;100844.48;1780263;79;21068;-85
2022/08/09 04:37:36;;;;;;;3.52;3.20;;;;;;;28.61;45.08;100839.83;1780423;79;21667;-85
2022/08/09 04:40:05;;;;;;;3.37;3.05;;;;;;;28.62;45.09;100848.45;1780282;80;21110;-84
2022/08/09 04:42:31;;;;;;;3.58;2.87;;;;;;;28.63;45.08;100849.27;1780365;79;21431;-84
2022/08/09 04:44:58;;;;;;;3.10;2.80;;;;;;;28.61;45.08;100846.83;1780533;80;21063;-84
2022/08/09 04:47:25;;;;;;;3.75;3.30;;;;;;;28.61;45.08;100839.23;1780116;79;21037;-84
2022/08/09 04:49:52;;;;;;;3.72;3.30;;;;;;;28.63;45.11;100852.06;1781433;80;21012;-83
2022/08/09 04:52:18;;;;;;;4.03;3.00;;;;;;;28.63;45.11;100847.86;1782830;80;21052;-84
2022/08/09 04:54:46;;;;;;;3.58;3.27;;;;;;;28.63;45.11;100845.06;1782685;80;21107;-85
2022/08/09 04:57:13;;;;;;;3.37;3.08;;;;;;;28.63;45.09;100843.66;1782710;80;20975;-84
2022/08/09 04:59:40;;;;;;;3.27;2.98;;;;;;;28.63;45.10;100837.48;1782825;80;21086;-84
2022/08/09 05:02:06;;;;;;;5.70;3.58;;;;;;;28.62;45.12;100841.45;1782934;79;21083;-84
2022/08/09 05:04:33;;;;;;;6.58;3.75;;;;;;;28.59;45.12;100838.81;1782573;80;21024;-85
2022/08/09 05:06:59;;;;;;;4.25;3.85;;;;;;;28.56;45.09;100840.94;1783074;80;21035;-85
2022/08/09 05:09:29;;;;;;;5.05;3.80;;;;;;;28.52;45.11;100847.64;1781989;80;21111;-85
2022/08/09 05:11:54;;;;;;;5.03;3.77;;;;;;;28.47;45.16;100847.97;1782947;79;21063;-85
2022/08/09 05:14:21;;;;;;;5.45;3.87;;;;;;;28.43;45.21;100847.88;1782133;79;21940;-85
2022/08/09 05:16:48;;;;;;;6.47;4.25;;;;;;;28.40;45.24;100846.41;1782313;79;21579;-85
2022/08/09 05:19:16;;;;;;;4.70;3.87;;;;;;;28.36;45.27;100845.54;1761016;79;21114;-84
2022/08/09 05:21:43;;;;;;;6.12;4.17;;;;;;;28.33;45.30;100842.09;1781596;79;22133;-85
2022/08/09 05:24:09;;;;;;;4.62;4.10;;;;;;;28.29;45.33;100836.42;1779714;79;21015;-84
2022/08/09 05:26:36;;;;;;;4.37;3.52;;;;;;;28.29;45.39;100848.20;1779831;79;21075;-85
2022/08/09 05:29:02;;;;;;;7.58;4.72;;;;;;;28.27;45.42;100849.96;1779963;79;21563;-85
2022/08/09 05:31:29;;;;;;;5.87;4.22;;;;;;;28.25;45.45;100850.13;1780035;79;21031;-85
2022/08/09 05:33:55;;;;;;;5.95;4.58;;;;;;;28.22;45.47;100859.27;1780352;79;21561;-85
2022/08/09 05:36:25;;;;;;;4.80;4.35;;;;;;;28.20;45.48;100873.61;1780315;79;21787;-85
2022/08/09 05:38:51;;;;;;;8.17;4.07;;;;;;;28.17;45.50;100886.12;1780085;79;21106;-85
2022/08/09 05:41:18;;;;;;;7.97;4.50;;;;;;;28.15;45.56;100873.89;1779653;80;21051;-85
2022/08/09 05:43:44;;;;;;;6.03;4.22;;;;;;;28.12;45.58;100864.27;1779591;80;21028;-85
2022/08/09 05:46:12;;;;;;;5.20;4.05;;;;;;;28.11;45.60;100861.82;1779381;79;21489;-85
2022/08/09 05:48:38;;;;;;;8.95;4.30;;;;;;;28.12;45.63;100867.06;1779671;79;21047;-85
2022/08/09 05:51:05;;;;;;;6.22;4.30;;;;;;;28.12;45.63;100869.86;1779838;79;21095;-85
2022/08/09 05:53:32;;;;;;;5.42;4.15;;;;;;;28.11;45.64;100873.01;1779685;80;21099;-85
2022/08/09 05:55:58;;;;;;;5.80;4.50;;;;;;;28.10;45.64;100884.78;1780304;80;21043;-85
2022/08/09 05:58:25;;;;;;;7.10;4.12;;;;;;;28.09;45.71;100889.34;1780110;79;21123;-85
2022/08/09 06:00:51;;;;;;;5.03;3.98;;;;;;;28.08;45.75;100885.72;1779878;79;20992;-85
2022/08/09 06:03:18;;;;;;;7.35;4.28;;;;;;;28.09;45.73;100878.14;1780107;80;21000;-85
2022/08/09 06:05:44;;;;;;;6.55;4.00;;;;;;;28.09;45.70;100883.74;1779214;79;21067;-85
2022/08/09 06:08:11;;;;;;;3.95;3.55;;;;;;;28.08;45.67;100882.92;1779328;80;21027;-85
2022/08/09 06:10:37;;;;;;;4.87;3.98;;;;;;;28.09;45.67;100883.74;1780140;79;21530;-85
2022/08/09 06:13:11;;;;;;;5.53;3.92;;;;;;;28.10;45.67;100878.38;1779788;80;21474;-85
2022/08/09 06:15:37;;;;;;;4.20;3.42;;;;;;;28.10;45.68;100883.39;1779486;79;21074;-85
2022/08/09 06:18:04;;;;;;;4.60;3.95;;;;;;;28.11;45.66;100881.41;1791257;78;21698;-85
2022/08/09 06:20:31;;;;;;;6.05;4.20;;;;;;;28.14;45.68;100887.06;1799820;79;21029;-86
2022/08/09 06:23:03;;;;;;;4.37;3.87;;;;;;;28.13;45.69;100892.44;1799654;79;21166;-85
2022/08/09 06:25:30;;;;;;;6.60;4.12;;;;;;;28.15;45.71;100890.68;1736719;81;21050;-86
2022/08/09 06:27:56;;;;;;;7.47;3.90;;;;;;;28.14;45.72;100894.06;1751492;81;21347;-86
2022/08/09 06:30:29;;;;;;;5.87;3.92;;;;;;;28.13;45.65;100902.22;1736307;82;21002;-85
2022/08/09 06:32:56;;;;;;;5.35;3.80;;;;;;;28.14;45.63;100893.25;1751640;81;21024;-85
2022/08/09 06:35:22;;;;;;;10.28;3.60;;;;;;;28.11;45.60;100895.39;1709780;82;21649;-86
2022/08/09 06:37:49;;;;;;;5.67;4.00;;;;;;;28.10;45.59;100895.16;1743213;81;21454;-86
2022/08/09 06:40:15;;;;;;;5.85;3.92;;;;;;;28.10;45.54;100895.16;1743094;82;21544;-86
2022/08/09 06:42:42;;;;;;;4.90;3.55;;;;;;;28.08;45.55;100896.91;1743131;82;21108;-86
2022/08/09 06:45:14;;;;;;;5.08;3.85;;;;;;;28.08;45.55;100890.50;1742944;81;21076;-86
2022/08/09 06:47:41;;;;;;;5.17;4.08;;;;;;;28.08;45.55;100889.11;1743132;82;21025;-85
2022/08/09 06:50:08;;;;;;;6.55;3.98;;;;;;;28.08;45.52;100888.52;1744655;82;21091;-86
2022/08/09 06:52:35;;;;;;;8.45;3.52;;;;;;;28.08;45.64;100887.13;1749071;82;21024;-85
2022/08/09 06:55:01;;;;;;;8.30;4.10;;;;;;;28.08;45.72;100889.92;1749315;80;21032;-85
2022/08/09 06:57:28;;;;;;;6.72;4.00;;;;;;;28.07;45.71;100888.30;1749406;80;21043;-85
2022/08/09 06:59:56;;;;;;;5.53;3.60;;;;;;;28.08;45.66;100891.31;1749245;80;21158;-84
2022/08/09 07:02:23;;;;;;;4.65;3.95;;;;;;;28.09;45.68;100896.33;1749361;82;21519;-85
2022/08/09 07:04:49;;;;;;;4.47;4.05;;;;;;;28.09;45.77;100890.15;1749983;80;21119;-85
2022/08/09 07:07:16;;;;;;;4.72;3.58;;;;;;;28.10;45.77;100890.38;1773764;80;21028;-85
2022/08/09 07:09:43;;;;;;;5.35;3.95;;;;;;;28.12;45.78;100885.24;1778489;79;21036;-85
2022/08/09 07:12:10;;;;;;;4.35;3.90;;;;;;;28.14;45.81;100887.06;1780569;80;21122;-85
2022/08/09 07:14:37;;;;;;;7.37;4.20;;;;;;;28.17;45.85;100884.73;1755999;80;21093;-86
2022/08/09 07:17:03;;;;;;;5.28;3.83;;;;;;;28.18;45.82;100892.73;1750125;80;21061;-85
2022/08/09 07:19:30;;;;;;;7.35;3.75;;;;;;;28.19;45.76;100897.74;1722402;82;21028;-85
2022/08/09 07:22:06;;;;;;;7.45;3.60;;;;;;;28.20;45.72;100895.17;1750017;80;21079;-85
2022/08/09 07:25:06;;;;;;;7.22;3.77;;;;;;;28.21;45.71;100896.22;1748832;79;21191;-86
2022/08/09 07:27:32;;;;;;;7.53;3.87;;;;;;;28.23;45.67;100888.25;1657826;80;21186;-84
2022/08/09 07:30:03;;;;;;;6.45;3.92;;;;;;;28.25;45.65;100892.09;1759263;80;20976;-86
2022/08/09 07:32:39;;;;;;;6.62;4.05;;;;;;;28.27;45.62;100891.11;1778946;80;21035;-87
2022/08/09 07:35:08;;;;;;;6.08;3.90;;;;;;;28.29;45.60;100897.17;1776929;79;21669;-86
2022/08/09 07:37:42;;;;;;;5.30;3.50;;;;;;;28.28;45.48;100889.36;1770370;80;21123;-85
2022/08/09 07:40:10;;;;;;;7.55;4.03;;;;;;;28.30;45.40;100893.20;1761389;80;21074;-85
2022/08/09 07:43:04;;;;;;;;;;;;;;;;;;;;;
2022/08/09 07:45:27;;;;;;;4.78;3.87;;;;;;;28.31;45.42;100883.61;1781493;80;21063;-86
2022/08/09 07:47:59;;;;;;;5.87;3.47;;;;;;;28.33;45.47;100884.06;1772307;79;20944;-87
2022/08/09 07:50:30;;;;;;;8.93;4.17;;;;;;;28.34;45.49;100881.49;1768861;79;21127;-86
2022/08/09 07:53:05;;;;;;;9.30;3.30;;;;;;;28.36;45.50;100883.31;1766894;80;21529;-87
2022/08/09 07:55:35;;;;;;;7.45;3.95;;;;;;;28.36;45.37;100884.13;1775292;80;21056;-85
2022/08/09 07:58:06;;;;;;;8.27;3.83;;;;;;;28.38;45.24;100883.19;1772298;80;21099;-87
2022/08/09 08:00:34;;;;;;;9.33;4.15;;;;;;;28.38;45.23;100876.77;1754390;80;22043;-86
2022/08/09 08:03:04;;;;;;;6.62;3.83;;;;;;;28.41;45.26;100874.63;1748310;80;21095;-86
2022/08/09 08:05:38;;;;;;;4.75;3.62;;;;;;;28.42;45.18;100872.87;1744119;80;21549;-84
2022/08/09 08:08:09;;;;;;;4.72;3.72;;;;;;;28.43;45.02;100877.87;1748069;80;21459;-84
2022/08/09 08:10:36;;;;;;;6.00;3.95;;;;;;;28.42;44.85;100875.67;1764315;79;21063;-84
2022/08/09 08:13:03;;;;;;;5.85;3.55;;;;;;;28.44;44.80;100866.88;1777342;79;21055;-84
2022/08/09 08:15:35;;;;;;;8.48;3.92;;;;;;;28.45;44.77;100866.52;1774205;79;21354;-84
2022/08/09 08:18:14;;;;;;;8.50;3.80;;;;;;;28.46;44.77;100865.35;1774697;80;21123;-84
2022/08/09 08:20:34;;;;;;;8.13;3.98;;;;;;;28.48;44.72;100864.96;1772338;80;21523;-85
2022/08/09 08:23:04;;;;;;;6.33;3.70;;;;;;;28.50;44.68;100858.42;1774566;79;21091;-84
2022/08/09 08:25:30;;;;;;;7.25;3.90;;;;;;;28.52;44.57;100861.05;1746937;80;21071;-85
2022/08/09 08:27:57;;;;;;;6.17;3.50;;;;;;;28.52;44.45;100866.66;1743815;80;21115;-84
2022/08/09 08:30:26;;;;;;;7.90;3.67;;;;;;;28.54;44.38;100862.91;1763572;80;21068;-84
2022/08/09 08:32:52;;;;;;;4.70;3.42;;;;;;;28.56;44.35;100863.92;1771658;80;21904;-83
2022/08/09 08:35:18;;;;;;;7.80;4.10;;;;;;;28.57;44.27;100857.96;1747013;80;21035;-85
2022/08/09 08:37:45;;;;;;;5.05;3.33;;;;;;;28.59;44.29;100860.40;1777937;80;21366;-85
2022/08/09 08:40:14;;;;;;;8.60;3.60;;;;;;;28.60;44.27;100861.41;1801981;78;21097;-85
2022/08/09 08:42:41;;;;;;;6.00;4.03;;;;;;;28.62;44.19;100858.25;1821695;77;21020;-84
2022/08/09 08:45:09;;;;;;;4.75;4.05;;;;;;;28.63;44.12;100857.08;1719071;82;21633;-85
2022/08/09 08:47:36;;;;;;;9.25;4.30;;;;;;;28.64;44.06;100853.69;1747501;80;21619;-84
2022/08/09 08:50:02;;;;;;;4.83;3.52;;;;;;;28.65;43.99;100850.50;1741960;81;21076;-85
2022/08/09 08:52:32;;;;;;;4.95;3.67;;;;;;;28.66;44.00;100856.33;1743312;80;21162;-84
2022/08/09 08:54:58;;;;;;;7.12;3.80;;;;;;;28.68;43.99;100852.58;1752578;81;21699;-83
2022/08/09 08:57:26;;;;;;;6.80;3.52;;;;;;;28.69;43.98;100852.77;1741983;81;21072;-84
2022/08/09 08:59:53;;;;;;;6.25;3.52;;;;;;;28.72;43.87;100844.27;1740011;81;21053;-83
2022/08/09 09:02:28;;;;;;;4.50;3.15;;;;;;;28.73;43.68;100852.89;1737169;81;21659;-83
2022/08/09 09:04:59;;;;;;;6.28;4.17;;;;;;;28.73;43.56;100842.47;1758302;81;21161;-83
2022/08/09 09:07:26;;;;;;;5.80;4.00;;;;;;;28.74;43.49;100846.09;1745332;81;21079;-84
2022/08/09 09:10:03;;;;;;;6.62;3.58;;;;;;;28.75;43.44;100842.11;1739187;81;21060;-84
2022/08/09 09:12:30;;;;;;;7.65;3.80;;;;;;;28.77;43.41;100841.95;1730079;81;21355;-83
2022/08/09 09:14:58;;;;;;;5.92;3.33;;;;;;;28.78;43.37;100835.77;1729366;82;21618;-83
2022/08/09 09:17:25;;;;;;;5.15;3.83;;;;;;;28.79;43.41;100829.80;1752211;79;21996;-83
2022/08/09 09:19:52;;;;;;;5.87;3.40;;;;;;;28.81;43.49;100834.45;1755182;81;21028;-83
2022/08/09 09:22:19;;;;;;;5.05;3.52;;;;;;;28.83;43.53;100833.47;1755442;80;21040;-84
2022/08/09 09:24:49;;;;;;;6.15;3.27;;;;;;;28.85;43.61;100830.31;1754852;80;21504;-84
2022/08/09 09:27:22;;;;;;;4.47;3.45;;;;;;;28.86;43.63;100834.11;1740425;81;21131;-84
2022/08/09 09:29:49;;;;;;;5.85;2.98;;;;;;;28.88;43.66;100829.55;1735739;80;21412;-84
2022/08/09 09:32:24;;;;;;;4.55;3.37;;;;;;;28.89;43.66;100825.58;1724542;82;21035;-84
2022/08/09 09:35:08;;;;;;;5.92;3.40;;;;;;;28.89;43.62;100823.59;1747212;80;21087;-84
2022/08/09 09:37:35;;;;;;;7.80;3.27;;;;;;;28.91;43.59;100824.59;1778702;79;21057;-84
2022/08/09 09:40:03;;;;;;;4.62;3.42;;;;;;;28.92;43.58;100827.03;1774633;79;21551;-84
2022/08/09 09:42:29;;;;;;;4.83;3.37;;;;;;;28.93;43.54;100818.04;1786996;79;21030;-83
2022/08/09 09:45:06;;;;;;;5.50;3.45;;;;;;;28.93;43.51;100821.66;1794738;79;21928;-83
2022/08/09 09:47:32;;;;;;;6.53;3.37;;;;;;;28.93;43.49;100820.25;1786157;79;21543;-84
2022/08/09 09:50:00;;;;;;;5.78;3.45;;;;;;;28.95;43.41;100817.06;1729431;82;21054;-84
2022/08/09 09:52:27;;;;;;;4.30;3.50;;;;;;;28.96;43.34;100816.70;1736199;81;21023;-84
2022/08/09 09:55:04;;;;;;;5.10;3.50;;;;;;;28.96;43.28;100815.88;1723789;82;21166;-83
2022/08/09 09:57:30;;;;;;;6.53;3.10;;;;;;;28.96;43.20;100807.48;1727220;82;21089;-85
2022/08/09 09:59:57;;;;;;;4.22;3.15;;;;;;;28.97;43.24;100808.52;1722849;82;21023;-84
2022/08/09 10:02:25;;;;;;;5.25;3.20;;;;;;;28.97;43.24;100808.52;1782267;80;21091;-84
2022/08/09 10:05:08;;;;;;;3.85;3.22;;;;;;;28.98;43.21;100811.52;1752219;80;21052;-83
2022/08/09 10:07:34;;;;;;;4.08;3.30;;;;;;;28.99;43.24;100808.94;1751223;81;21096;-84
2022/08/09 10:10:01;;;;;;;4.87;3.00;;;;;;;28.99;43.18;100810.34;1751119;81;21111;-85
2022/08/09 10:12:31;;;;;;;5.00;3.33;;;;;;;29.01;42.95;100809.38;1751213;81;21087;-85
2022/08/09 10:15:15;;;;;;;3.65;2.83;;;;;;;29.00;42.93;100800.75;1773900;80;21056;-85
2022/08/09 10:17:44;;;;;;;4.30;3.05;;;;;;;29.02;42.95;100800.39;1782266;79;21558;-85
2022/08/09 10:20:22;;;;;;;5.83;3.40;;;;;;;29.03;42.77;100807.00;1781433;79;21101;-85
2022/08/09 10:22:59;;;;;;;4.25;3.30;;;;;;;29.03;42.75;100802.80;1777547;80;21020;-84
2022/08/09 10:25:19;;;;;;;4.20;2.92;;;;;;;29.02;42.69;100798.41;1762774;79;21096;-84
2022/08/09 10:27:46;;;;;;;8.25;3.45;;;;;;;29.04;42.73;100790.41;1751432;80;21060;-84
2022/08/09 10:30:13;;;;;;;6.53;3.33;;;;;;;29.05;42.43;100801.03;1767294;79;21020;-84
2022/08/09 10:32:40;;;;;;;5.67;3.42;;;;;;;29.06;42.28;100799.86;1794129;79;21097;-84
2022/08/09 10:35:07;;;;;;;4.53;3.90;;;;;;;29.07;42.18;100796.47;1794449;79;21026;-84
2022/08/09 10:37:34;;;;;;;5.53;4.15;;;;;;;29.07;42.11;100789.47;1794260;79;21690;-84
2022/08/09 10:40:01;;;;;;;6.30;3.67;;;;;;;29.09;41.96;100789.87;1794102;79;21026;-83
2022/08/09 10:42:27;;;;;;;6.20;3.40;;;;;;;29.09;41.77;100789.29;1714224;82;21101;-84
2022/08/09 10:45:07;;;;;;;5.75;3.80;;;;;;;29.08;41.70;100785.45;1794481;79;21173;-85
2022/08/09 10:47:59;;;;;;;4.05;2.98;;;;;;;29.10;41.51;100784.50;1714438;83;21105;-85
2022/08/09 10:51:05;;;;;;;5.90;3.17;;;;;;;29.09;41.33;100775.28;1726316;82;21512;-84
2022/08/09 10:53:37;;;;;;;4.40;2.85;;;;;;;29.09;41.33;100786.48;1783318;79;21062;-85
2022/08/09 10:56:25;;;;;;;5.45;3.15;;;;;;;29.09;41.32;100781.47;1772860;79;21109;-84
2022/08/09 10:58:53;;;;;;;3.10;2.80;;;;;;;29.08;41.14;100777.86;1777566;79;21298;-84
2022/08/09 11:01:38;;;;;;;4.22;3.00;;;;;;;29.08;41.03;100770.86;1782416;79;21047;-84
2022/08/09 11:04:13;;;;;;;3.10;2.60;;;;;;;29.10;41.19;100774.69;1780514;80;21021;-84
2022/08/09 11:06:41;;;;;;;5.05;3.20;;;;;;;29.09;41.10;100767.47;1782535;80;21538;-84
2022/08/09 11:09:09;;;;;;;5.22;2.80;;;;;;;29.09;41.16;100761.27;1782216;80;21084;-85
2022/08/09 11:12:05;;;;;;;4.05;2.72;;;;;;;29.08;41.03;100759.65;1775601;79;21055;-85
2022/08/09 11:15:14;;;;;;;5.78;3.30;;;;;;;29.10;41.00;100756.48;1782099;78;21100;-85
2022/08/09 11:17:48;;;;;;;4.60;2.58;;;;;;;29.09;40.91;100756.27;1781999;80;21680;-84
2022/08/09 11:20:14;;;;;;;3.83;2.77;;;;;;;29.10;40.65;100752.28;1782064;80;21005;-84
2022/08/09 11:22:51;;;;;;;6.12;2.72;;;;;;;29.10;40.64;100753.69;1782332;80;21087;-84
2022/08/09 11:25:20;;;;;;;4.17;2.45;;;;;;;29.10;40.66;100750.88;1782101;79;21119;-84
2022/08/09 11:27:54;;;;;;;5.12;2.77;;;;;;;29.11;40.47;100752.51;1728141;80;21092;-84
2022/08/09 11:30:31;;;;;;;3.95;2.72;;;;;;;29.11;40.18;100745.50;1750976;80;21562;-85
2022/08/09 11:33:19;;;;;;;4.67;2.72;;;;;;;29.11;39.97;100747.69;1751246;80;21095;-85
2022/08/09 11:35:48;;;;;;;4.22;2.25;;;;;;;29.12;39.79;100744.30;1751128;81;21577;-84
2022/08/09 11:38:33;;;;;;;4.80;2.13;;;;;;;29.13;39.38;100745.91;1778193;80;21035;-85